Texas General Land Office
 Texas General Land Office
 George P. Bush, Commissioner

 Oil Spill Prevention
 & Response

Texas Automated Buoy System
Real Time Ocean Observations
Supporting Oil Spill Prevention and
Response since 1995
Geochemical and Environmental Research Group

TABS Buoy F -- Texas Automated Buoy System

TABS Buoy F Conditions at 08/19/2017 19:30 UTC (08/19/2017 14:30 CDT)
28° 50.5500'N   94° 14.4960'W
AA3900 DCS - sensor depth 2m
Water Depth: 79 feet (24 meters)
Speed: 16.66 cm/s (0.32 kts) Direction: 119 °T (ESE) Water Temp: 31°C (87 °F)
System Voltage: 13.3 V Signal Strength: -2.4 dB Ping Count: 139
  


IMPORTANT: Notice to Mariners


Today's Velocity Data (download)

   Date   |  Time  |   East |   North|   Speed|  Dir | WaterT |
          |  (UTC) |  (cm/s)|  (cm/s)|  (cm/s)| (°T) |  (°C)  |
==========+========+========+========+========+======+========+
08/19/2017 05:00:00     8.01     4.40     9.14   61.2   30.6
08/19/2017 05:30:00     8.84     5.40    10.36   58.6   30.6
08/19/2017 06:00:00     8.45     5.32     9.99   57.8   30.6
08/19/2017 06:30:00     7.90     3.40     8.60   66.7   30.6
08/19/2017 07:00:00     7.75     3.64     8.56   64.8   30.6
08/19/2017 07:30:00     7.28     1.28     7.39   80.0   30.6
08/19/2017 08:00:00     8.30     3.57     9.04   66.7   30.6
08/19/2017 08:30:00     8.86     2.05     9.09   77.0   30.6
08/19/2017 09:00:00     9.81     2.16    10.04   77.6   30.6
08/19/2017 09:30:00    10.04     0.91    10.08   84.8   30.5
08/19/2017 10:00:00     8.98     0.43     8.99   87.3   30.5
08/19/2017 10:30:00     9.83    -2.23    10.08  102.8   30.5
08/19/2017 11:00:00     4.14     1.35     4.35   71.9   30.5
08/19/2017 11:30:00     5.18     2.43     5.72   64.9   30.5
08/19/2017 12:00:00    15.79     1.74    15.89   83.7   30.4
08/19/2017 12:30:00    19.34     3.27    19.61   80.4   30.4
08/19/2017 13:00:00    20.33     2.14    20.44   84.0   30.4
08/19/2017 13:30:00    21.45     1.26    21.49   86.6   30.4
08/19/2017 14:00:00    21.49     1.18    21.52   86.9   30.4
08/19/2017 14:30:00    24.37     1.21    24.40   87.2   30.4
08/19/2017 15:00:00    21.74     1.33    21.78   86.5   30.4
08/19/2017 15:30:00    21.33     0.31    21.33   89.2   30.4
08/19/2017 16:00:00    23.16     1.73    23.22   85.7   30.5
08/19/2017 16:30:00    21.59    -0.69    21.60   91.8   30.5
08/19/2017 17:00:00    20.47    -0.87    20.49   92.4   30.5
08/19/2017 17:30:00    18.88    -2.18    19.01   96.6   30.6
08/19/2017 18:00:00    16.63    -3.92    17.09  103.3   30.6
08/19/2017 18:30:00    16.45    -6.33    17.63  111.0   30.6
08/19/2017 19:00:00    13.75    -5.97    14.99  113.5   30.7
08/19/2017 19:30:00    14.52    -8.16    16.66  119.3   30.8



       
 

Today's Temperature - Salinity Data     (Download)


   Date   |  Time  |   Temp |   Cond |Salinity| Density|SoundVel|
          |  (UTC) |   (°C) | (ms/cm)|        | kg/m^3 |  (m/s) |
==========+========+========+========+========+========+========+